sensor_id;sensor_type;location;lat;lon;timestamp;temperature;humidity
20045;DHT22;10183;47.808;9.476;2023-12-20T00:02:25;3.20;99.90
20045;DHT22;10183;47.808;9.476;2023-12-20T00:05:12;3.30;99.90
20045;DHT22;10183;47.808;9.476;2023-12-20T00:07:59;3.30;99.90
20045;DHT22;10183;47.808;9.476;2023-12-20T00:10:45;3.30;99.90
20045;DHT22;10183;47.808;9.476;2023-12-20T00:13:31;3.20;99.90
20045;DHT22;10183;47.808;9.476;2023-12-20T00:16:17;3.20;99.90
20045;DHT22;10183;47.808;9.476;2023-12-20T00:19:03;3.20;99.90
20045;DHT22;10183;47.808;9.476;2023-12-20T00:21:49;3.20;99.90
20045;DHT22;10183;47.808;9.476;2023-12-20T00:24:35;3.30;99.90
20045;DHT22;10183;47.808;9.476;2023-12-20T00:27:21;3.20;99.90
20045;DHT22;10183;47.808;9.476;2023-12-20T00:30:07;3.20;99.90
20045;DHT22;10183;47.808;9.476;2023-12-20T00:32:53;3.20;99.90
20045;DHT22;10183;47.808;9.476;2023-12-20T00:35:39;3.20;99.90
20045;DHT22;10183;47.808;9.476;2023-12-20T00:38:25;3.20;99.90
20045;DHT22;10183;47.808;9.476;2023-12-20T00:41:11;3.30;99.90
20045;DHT22;10183;47.808;9.476;2023-12-20T00:43:57;3.30;99.90
20045;DHT22;10183;47.808;9.476;2023-12-20T00:46:43;3.30;99.90
20045;DHT22;10183;47.808;9.476;2023-12-20T00:49:29;3.40;99.90
20045;DHT22;10183;47.808;9.476;2023-12-20T00:52:15;3.40;99.90
20045;DHT22;10183;47.808;9.476;2023-12-20T00:55:03;3.40;99.90
20045;DHT22;10183;47.808;9.476;2023-12-20T00:57:49;3.30;99.90
20045;DHT22;10183;47.808;9.476;2023-12-20T01:00:35;3.40;99.90
20045;DHT22;10183;47.808;9.476;2023-12-20T01:03:21;3.40;99.90
20045;DHT22;10183;47.808;9.476;2023-12-20T01:06:07;3.40;99.90
20045;DHT22;10183;47.808;9.476;2023-12-20T01:08:53;3.40;99.90
20045;DHT22;10183;47.808;9.476;2023-12-20T01:11:39;3.40;99.90
20045;DHT22;10183;47.808;9.476;2023-12-20T01:14:25;3.40;99.90
20045;DHT22;10183;47.808;9.476;2023-12-20T01:17:11;3.40;99.90
20045;DHT22;10183;47.808;9.476;2023-12-20T01:19:57;3.40;99.90
20045;DHT22;10183;47.808;9.476;2023-12-20T01:22:43;3.40;99.90
20045;DHT22;10183;47.808;9.476;2023-12-20T01:25:31;3.40;99.90
20045;DHT22;10183;47.808;9.476;2023-12-20T01:28:17;3.40;99.90
20045;DHT22;10183;47.808;9.476;2023-12-20T01:31:03;3.50;99.90
20045;DHT22;10183;47.808;9.476;2023-12-20T01:33:49;3.40;99.90
20045;DHT22;10183;47.808;9.476;2023-12-20T01:36:35;3.40;99.90
20045;DHT22;10183;47.808;9.476;2023-12-20T01:39:21;3.40;99.90
20045;DHT22;10183;47.808;9.476;2023-12-20T01:42:07;3.50;99.90
20045;DHT22;10183;47.808;9.476;2023-12-20T01:44:53;3.50;99.90
20045;DHT22;10183;47.808;9.476;2023-12-20T01:47:39;3.60;99.90
20045;DHT22;10183;47.808;9.476;2023-12-20T01:50:26;3.70;99.90
20045;DHT22;10183;47.808;9.476;2023-12-20T01:53:13;3.70;99.90
20045;DHT22;10183;47.808;9.476;2023-12-20T01:56:00;3.70;99.90
20045;DHT22;10183;47.808;9.476;2023-12-20T01:58:47;3.60;99.90
20045;DHT22;10183;47.808;9.476;2023-12-20T02:01:34;3.60;99.90
20045;DHT22;10183;47.808;9.476;2023-12-20T02:04:20;3.60;99.90
20045;DHT22;10183;47.808;9.476;2023-12-20T02:07:07;3.70;99.90
20045;DHT22;10183;47.808;9.476;2023-12-20T02:09:54;3.70;99.90
20045;DHT22;10183;47.808;9.476;2023-12-20T02:12:40;3.70;99.90
20045;DHT22;10183;47.808;9.476;2023-12-20T02:15:26;3.70;99.90
20045;DHT22;10183;47.808;9.476;2023-12-20T02:18:12;3.70;99.90
20045;DHT22;10183;47.808;9.476;2023-12-20T02:21:01;3.70;99.90
20045;DHT22;10183;47.808;9.476;2023-12-20T02:23:46;3.70;99.90
20045;DHT22;10183;47.808;9.476;2023-12-20T02:26:33;3.80;99.90
20045;DHT22;10183;47.808;9.476;2023-12-20T02:29:19;3.80;99.90
20045;DHT22;10183;47.808;9.476;2023-12-20T02:32:05;3.70;99.90
20045;DHT22;10183;47.808;9.476;2023-12-20T02:34:52;3.80;99.90
20045;DHT22;10183;47.808;9.476;2023-12-20T02:37:37;3.80;99.90
20045;DHT22;10183;47.808;9.476;2023-12-20T02:40:23;3.80;99.90
20045;DHT22;10183;47.808;9.476;2023-12-20T02:43:09;3.80;99.90
20045;DHT22;10183;47.808;9.476;2023-12-20T02:45:55;3.80;99.90
20045;DHT22;10183;47.808;9.476;2023-12-20T02:48:41;3.70;99.90
20045;DHT22;10183;47.808;9.476;2023-12-20T02:51:27;3.60;99.90
20045;DHT22;10183;47.808;9.476;2023-12-20T02:54:13;3.40;99.90
20045;DHT22;10183;47.808;9.476;2023-12-20T02:56:59;3.40;99.90
20045;DHT22;10183;47.808;9.476;2023-12-20T02:59:45;3.30;99.90
20045;DHT22;10183;47.808;9.476;2023-12-20T03:02:31;3.30;99.90
20045;DHT22;10183;47.808;9.476;2023-12-20T03:05:17;3.20;99.90
20045;DHT22;10183;47.808;9.476;2023-12-20T03:08:03;3.20;99.90
20045;DHT22;10183;47.808;9.476;2023-12-20T03:10:49;3.20;99.90
20045;DHT22;10183;47.808;9.476;2023-12-20T03:13:35;3.10;99.90
20045;DHT22;10183;47.808;9.476;2023-12-20T03:16:21;3.10;99.90
20045;DHT22;10183;47.808;9.476;2023-12-20T03:19:07;3.10;99.90
20045;DHT22;10183;47.808;9.476;2023-12-20T03:21:53;3.10;99.90
20045;DHT22;10183;47.808;9.476;2023-12-20T03:24:39;3.10;99.90
20045;DHT22;10183;47.808;9.476;2023-12-20T03:27:25;3.20;99.90
20045;DHT22;10183;47.808;9.476;2023-12-20T03:30:11;3.10;99.90
20045;DHT22;10183;47.808;9.476;2023-12-20T03:32:57;3.10;99.90
20045;DHT22;10183;47.808;9.476;2023-12-20T03:35:43;3.10;99.90
20045;DHT22;10183;47.808;9.476;2023-12-20T03:38:29;3.10;99.90
20045;DHT22;10183;47.808;9.476;2023-12-20T03:41:15;3.10;99.90
20045;DHT22;10183;47.808;9.476;2023-12-20T03:44:01;3.30;99.90
20045;DHT22;10183;47.808;9.476;2023-12-20T03:46:47;3.20;99.90
20045;DHT22;10183;47.808;9.476;2023-12-20T03:49:34;3.20;99.90
20045;DHT22;10183;47.808;9.476;2023-12-20T03:52:22;3.10;99.90
20045;DHT22;10183;47.808;9.476;2023-12-20T03:55:08;3.20;99.90
20045;DHT22;10183;47.808;9.476;2023-12-20T03:57:54;3.10;99.90
20045;DHT22;10183;47.808;9.476;2023-12-20T04:00:40;3.20;99.90
20045;DHT22;10183;47.808;9.476;2023-12-20T04:03:26;3.10;99.90
20045;DHT22;10183;47.808;9.476;2023-12-20T04:06:17;3.20;99.90
20045;DHT22;10183;47.808;9.476;2023-12-20T04:09:03;3.10;99.90
20045;DHT22;10183;47.808;9.476;2023-12-20T04:11:50;3.10;99.90
20045;DHT22;10183;47.808;9.476;2023-12-20T04:14:36;3.20;99.90
20045;DHT22;10183;47.808;9.476;2023-12-20T04:17:22;3.00;99.90
20045;DHT22;10183;47.808;9.476;2023-12-20T04:20:09;3.00;99.90
20045;DHT22;10183;47.808;9.476;2023-12-20T04:22:55;3.00;99.90
20045;DHT22;10183;47.808;9.476;2023-12-20T04:25:41;3.00;99.90
20045;DHT22;10183;47.808;9.476;2023-12-20T04:28:27;3.00;99.90
20045;DHT22;10183;47.808;9.476;2023-12-20T04:31:15;3.00;99.90
20045;DHT22;10183;47.808;9.476;2023-12-20T04:34:01;3.00;99.90
20045;DHT22;10183;47.808;9.476;2023-12-20T04:36:47;2.90;99.90
20045;DHT22;10183;47.808;9.476;2023-12-20T04:39:33;3.00;99.90
20045;DHT22;10183;47.808;9.476;2023-12-20T04:42:19;3.00;99.90
20045;DHT22;10183;47.808;9.476;2023-12-20T04:45:05;3.00;99.90
20045;DHT22;10183;47.808;9.476;2023-12-20T04:47:51;3.00;99.90
20045;DHT22;10183;47.808;9.476;2023-12-20T04:50:37;3.10;99.90
20045;DHT22;10183;47.808;9.476;2023-12-20T04:53:23;3.10;99.90
20045;DHT22;10183;47.808;9.476;2023-12-20T04:56:09;3.10;99.90
20045;DHT22;10183;47.808;9.476;2023-12-20T04:58:55;3.20;99.90
20045;DHT22;10183;47.808;9.476;2023-12-20T05:01:41;3.20;99.90
20045;DHT22;10183;47.808;9.476;2023-12-20T05:04:27;3.20;99.90
20045;DHT22;10183;47.808;9.476;2023-12-20T05:07:13;3.20;99.90
20045;DHT22;10183;47.808;9.476;2023-12-20T05:09:59;3.30;99.90
20045;DHT22;10183;47.808;9.476;2023-12-20T05:12:45;3.20;99.90
20045;DHT22;10183;47.808;9.476;2023-12-20T05:15:31;3.30;99.90
20045;DHT22;10183;47.808;9.476;2023-12-20T05:18:17;3.30;99.90
20045;DHT22;10183;47.808;9.476;2023-12-20T05:21:03;3.40;99.90
20045;DHT22;10183;47.808;9.476;2023-12-20T05:23:50;3.40;99.90
20045;DHT22;10183;47.808;9.476;2023-12-20T05:26:36;3.40;99.90
20045;DHT22;10183;47.808;9.476;2023-12-20T05:29:22;3.40;99.90
20045;DHT22;10183;47.808;9.476;2023-12-20T05:32:07;3.40;99.90
20045;DHT22;10183;47.808;9.476;2023-12-20T05:34:53;3.40;99.90
20045;DHT22;10183;47.808;9.476;2023-12-20T05:37:39;3.50;99.90
20045;DHT22;10183;47.808;9.476;2023-12-20T05:40:25;3.50;99.90
20045;DHT22;10183;47.808;9.476;2023-12-20T05:43:11;3.50;99.90
20045;DHT22;10183;47.808;9.476;2023-12-20T05:45:57;3.50;99.90
20045;DHT22;10183;47.808;9.476;2023-12-20T05:48:43;3.50;99.90
20045;DHT22;10183;47.808;9.476;2023-12-20T05:51:29;3.50;99.90
20045;DHT22;10183;47.808;9.476;2023-12-20T05:54:16;3.60;99.90
20045;DHT22;10183;47.808;9.476;2023-12-20T05:57:02;3.60;99.90
20045;DHT22;10183;47.808;9.476;2023-12-20T05:59:48;3.60;99.90
20045;DHT22;10183;47.808;9.476;2023-12-20T06:02:34;3.60;99.90
20045;DHT22;10183;47.808;9.476;2023-12-20T06:05:20;3.60;99.90
20045;DHT22;10183;47.808;9.476;2023-12-20T06:08:06;3.60;99.90
20045;DHT22;10183;47.808;9.476;2023-12-20T06:10:52;3.60;99.90
20045;DHT22;10183;47.808;9.476;2023-12-20T06:13:38;3.70;99.90
20045;DHT22;10183;47.808;9.476;2023-12-20T06:16:24;3.70;99.90
20045;DHT22;10183;47.808;9.476;2023-12-20T06:19:10;3.60;99.90
20045;DHT22;10183;47.808;9.476;2023-12-20T06:21:56;3.70;99.90
20045;DHT22;10183;47.808;9.476;2023-12-20T06:24:42;3.70;99.90
20045;DHT22;10183;47.808;9.476;2023-12-20T06:27:28;3.70;99.90
20045;DHT22;10183;47.808;9.476;2023-12-20T06:30:15;3.70;99.90
20045;DHT22;10183;47.808;9.476;2023-12-20T06:33:02;3.70;99.90
20045;DHT22;10183;47.808;9.476;2023-12-20T06:35:48;3.70;99.90
20045;DHT22;10183;47.808;9.476;2023-12-20T06:38:34;3.80;99.90
20045;DHT22;10183;47.808;9.476;2023-12-20T06:41:20;3.70;99.90
20045;DHT22;10183;47.808;9.476;2023-12-20T06:44:06;3.80;99.90
20045;DHT22;10183;47.808;9.476;2023-12-20T06:46:52;3.80;99.90
20045;DHT22;10183;47.808;9.476;2023-12-20T06:49:39;3.80;99.90
20045;DHT22;10183;47.808;9.476;2023-12-20T06:52:24;3.70;99.90
20045;DHT22;10183;47.808;9.476;2023-12-20T06:55:10;3.70;99.90
20045;DHT22;10183;47.808;9.476;2023-12-20T06:57:56;3.70;99.90
20045;DHT22;10183;47.808;9.476;2023-12-20T07:00:42;3.70;99.90
20045;DHT22;10183;47.808;9.476;2023-12-20T07:03:28;3.70;99.90
20045;DHT22;10183;47.808;9.476;2023-12-20T07:06:14;3.80;99.90
20045;DHT22;10183;47.808;9.476;2023-12-20T07:09:02;3.70;99.90
20045;DHT22;10183;47.808;9.476;2023-12-20T07:11:48;3.70;99.90
20045;DHT22;10183;47.808;9.476;2023-12-20T07:14:34;3.80;99.90
20045;DHT22;10183;47.808;9.476;2023-12-20T07:17:20;3.80;99.90
20045;DHT22;10183;47.808;9.476;2023-12-20T07:20:07;3.70;99.90
20045;DHT22;10183;47.808;9.476;2023-12-20T07:22:56;3.80;99.90
20045;DHT22;10183;47.808;9.476;2023-12-20T07:25:42;3.80;99.90
20045;DHT22;10183;47.808;9.476;2023-12-20T07:28:28;3.80;99.90
20045;DHT22;10183;47.808;9.476;2023-12-20T07:31:15;3.80;99.90
20045;DHT22;10183;47.808;9.476;2023-12-20T07:34:01;3.80;99.90
20045;DHT22;10183;47.808;9.476;2023-12-20T07:36:47;4.00;99.90
20045;DHT22;10183;47.808;9.476;2023-12-20T07:39:33;4.00;99.90
20045;DHT22;10183;47.808;9.476;2023-12-20T07:42:19;3.90;99.90
20045;DHT22;10183;47.808;9.476;2023-12-20T07:45:07;4.00;99.90
20045;DHT22;10183;47.808;9.476;2023-12-20T07:47:54;4.00;99.90
20045;DHT22;10183;47.808;9.476;2023-12-20T07:50:40;4.00;99.90
20045;DHT22;10183;47.808;9.476;2023-12-20T07:53:26;4.00;99.90
20045;DHT22;10183;47.808;9.476;2023-12-20T07:56:17;4.00;99.90
20045;DHT22;10183;47.808;9.476;2023-12-20T07:59:03;4.00;99.90
20045;DHT22;10183;47.808;9.476;2023-12-20T08:01:49;4.00;99.90
20045;DHT22;10183;47.808;9.476;2023-12-20T08:04:35;4.00;99.90
20045;DHT22;10183;47.808;9.476;2023-12-20T08:07:21;4.00;99.90
20045;DHT22;10183;47.808;9.476;2023-12-20T08:10:07;4.10;99.90
20045;DHT22;10183;47.808;9.476;2023-12-20T08:12:53;4.00;99.90
20045;DHT22;10183;47.808;9.476;2023-12-20T08:15:39;4.10;99.90
20045;DHT22;10183;47.808;9.476;2023-12-20T08:18:25;4.10;99.90
20045;DHT22;10183;47.808;9.476;2023-12-20T08:21:11;4.10;99.90
20045;DHT22;10183;47.808;9.476;2023-12-20T08:23:57;4.10;99.90
20045;DHT22;10183;47.808;9.476;2023-12-20T08:26:43;4.10;99.90
20045;DHT22;10183;47.808;9.476;2023-12-20T08:29:29;4.10;99.90
20045;DHT22;10183;47.808;9.476;2023-12-20T08:32:15;4.20;99.90
20045;DHT22;10183;47.808;9.476;2023-12-20T08:35:01;4.20;99.90
20045;DHT22;10183;47.808;9.476;2023-12-20T08:37:47;4.10;99.90
20045;DHT22;10183;47.808;9.476;2023-12-20T08:40:33;4.10;99.90
20045;DHT22;10183;47.808;9.476;2023-12-20T08:43:19;4.20;99.90
20045;DHT22;10183;47.808;9.476;2023-12-20T08:46:04;4.20;99.90
20045;DHT22;10183;47.808;9.476;2023-12-20T08:48:50;4.20;99.90
20045;DHT22;10183;47.808;9.476;2023-12-20T08:51:36;4.20;99.90
20045;DHT22;10183;47.808;9.476;2023-12-20T08:54:25;4.20;99.90
20045;DHT22;10183;47.808;9.476;2023-12-20T08:57:12;4.20;99.90
20045;DHT22;10183;47.808;9.476;2023-12-20T08:59:58;4.20;99.90
20045;DHT22;10183;47.808;9.476;2023-12-20T09:02:44;4.30;99.90
20045;DHT22;10183;47.808;9.476;2023-12-20T09:05:29;4.30;99.90
20045;DHT22;10183;47.808;9.476;2023-12-20T09:08:15;4.30;99.90
20045;DHT22;10183;47.808;9.476;2023-12-20T09:11:01;4.30;99.90
20045;DHT22;10183;47.808;9.476;2023-12-20T09:13:47;4.30;99.90
20045;DHT22;10183;47.808;9.476;2023-12-20T09:16:33;4.40;99.90
20045;DHT22;10183;47.808;9.476;2023-12-20T09:19:20;4.40;99.90
20045;DHT22;10183;47.808;9.476;2023-12-20T09:22:06;4.40;99.90
20045;DHT22;10183;47.808;9.476;2023-12-20T09:24:52;4.40;99.90
20045;DHT22;10183;47.808;9.476;2023-12-20T09:27:39;4.40;99.90
20045;DHT22;10183;47.808;9.476;2023-12-20T09:30:25;4.40;99.90
20045;DHT22;10183;47.808;9.476;2023-12-20T09:33:11;4.40;99.90
20045;DHT22;10183;47.808;9.476;2023-12-20T09:35:57;4.40;99.90
20045;DHT22;10183;47.808;9.476;2023-12-20T09:38:44;4.40;99.90
20045;DHT22;10183;47.808;9.476;2023-12-20T09:41:32;4.40;99.90
20045;DHT22;10183;47.808;9.476;2023-12-20T09:44:20;4.40;99.90
20045;DHT22;10183;47.808;9.476;2023-12-20T09:47:06;4.40;99.90
20045;DHT22;10183;47.808;9.476;2023-12-20T09:49:53;4.40;99.90
20045;DHT22;10183;47.808;9.476;2023-12-20T09:52:40;4.40;99.90
20045;DHT22;10183;47.808;9.476;2023-12-20T09:55:29;4.50;99.90
20045;DHT22;10183;47.808;9.476;2023-12-20T09:58:16;4.40;99.90
20045;DHT22;10183;47.808;9.476;2023-12-20T10:01:02;4.40;99.90
20045;DHT22;10183;47.808;9.476;2023-12-20T10:03:51;4.50;99.90
20045;DHT22;10183;47.808;9.476;2023-12-20T10:06:37;4.40;99.90
20045;DHT22;10183;47.808;9.476;2023-12-20T10:09:24;4.50;99.90
20045;DHT22;10183;47.808;9.476;2023-12-20T10:12:10;4.50;99.90
20045;DHT22;10183;47.808;9.476;2023-12-20T10:14:57;4.50;99.90
20045;DHT22;10183;47.808;9.476;2023-12-20T10:17:43;4.50;99.90
20045;DHT22;10183;47.808;9.476;2023-12-20T10:20:30;4.50;99.90
20045;DHT22;10183;47.808;9.476;2023-12-20T10:23:16;4.60;99.90
20045;DHT22;10183;47.808;9.476;2023-12-20T10:26:03;4.60;99.90
20045;DHT22;10183;47.808;9.476;2023-12-20T10:28:59;4.60;99.90
20045;DHT22;10183;47.808;9.476;2023-12-20T10:31:46;4.60;99.90
20045;DHT22;10183;47.808;9.476;2023-12-20T10:34:32;4.60;99.90
20045;DHT22;10183;47.808;9.476;2023-12-20T10:37:18;4.60;99.90
20045;DHT22;10183;47.808;9.476;2023-12-20T10:40:05;4.60;99.90
20045;DHT22;10183;47.808;9.476;2023-12-20T10:42:52;4.80;99.90
20045;DHT22;10183;47.808;9.476;2023-12-20T10:45:38;4.70;99.90
20045;DHT22;10183;47.808;9.476;2023-12-20T10:48:24;4.70;99.90
20045;DHT22;10183;47.808;9.476;2023-12-20T10:51:17;4.70;99.90
20045;DHT22;10183;47.808;9.476;2023-12-20T10:54:04;4.70;99.90
20045;DHT22;10183;47.808;9.476;2023-12-20T10:56:52;4.90;99.90
20045;DHT22;10183;47.808;9.476;2023-12-20T10:59:38;5.00;99.90
20045;DHT22;10183;47.808;9.476;2023-12-20T11:02:25;5.00;99.90
20045;DHT22;10183;47.808;9.476;2023-12-20T11:08:33;5.10;99.90
20045;DHT22;10183;47.808;9.476;2023-12-20T11:11:33;4.90;99.90
20045;DHT22;10183;47.808;9.476;2023-12-20T11:14:25;5.00;99.90
20045;DHT22;10183;47.808;9.476;2023-12-20T11:17:14;5.10;99.90
20045;DHT22;10183;47.808;9.476;2023-12-20T11:20:06;5.00;99.90
20045;DHT22;10183;47.808;9.476;2023-12-20T11:22:54;5.00;99.90
20045;DHT22;10183;47.808;9.476;2023-12-20T11:25:52;4.90;99.90
20045;DHT22;10183;47.808;9.476;2023-12-20T11:28:39;4.90;99.90
20045;DHT22;10183;47.808;9.476;2023-12-20T11:31:26;5.00;99.90
20045;DHT22;10183;47.808;9.476;2023-12-20T11:34:13;4.90;99.90
20045;DHT22;10183;47.808;9.476;2023-12-20T11:37:02;5.00;99.90
20045;DHT22;10183;47.808;9.476;2023-12-20T11:40:08;5.00;99.90
20045;DHT22;10183;47.808;9.476;2023-12-20T11:42:55;5.00;99.90
20045;DHT22;10183;47.808;9.476;2023-12-20T11:45:49;5.10;99.90
20045;DHT22;10183;47.808;9.476;2023-12-20T11:48:38;5.10;99.90
20045;DHT22;10183;47.808;9.476;2023-12-20T11:51:24;5.30;99.90
20045;DHT22;10183;47.808;9.476;2023-12-20T11:54:10;5.60;99.90
20045;DHT22;10183;47.808;9.476;2023-12-20T11:56:57;6.00;99.90
20045;DHT22;10183;47.808;9.476;2023-12-20T11:59:43;6.80;99.90
20045;DHT22;10183;47.808;9.476;2023-12-20T12:02:30;7.70;99.90
20045;DHT22;10183;47.808;9.476;2023-12-20T12:05:16;7.00;99.90
20045;DHT22;10183;47.808;9.476;2023-12-20T12:08:02;6.80;99.90
20045;DHT22;10183;47.808;9.476;2023-12-20T12:10:48;6.30;99.90
20045;DHT22;10183;47.808;9.476;2023-12-20T12:13:35;6.00;99.90
20045;DHT22;10183;47.808;9.476;2023-12-20T12:16:21;6.40;99.90
20045;DHT22;10183;47.808;9.476;2023-12-20T12:19:07;6.80;99.90
20045;DHT22;10183;47.808;9.476;2023-12-20T12:22:13;6.10;99.90
20045;DHT22;10183;47.808;9.476;2023-12-20T12:25:09;5.90;99.90
20045;DHT22;10183;47.808;9.476;2023-12-20T12:27:56;5.80;99.90
20045;DHT22;10183;47.808;9.476;2023-12-20T12:30:45;5.60;99.90
20045;DHT22;10183;47.808;9.476;2023-12-20T12:33:41;5.60;99.90
20045;DHT22;10183;47.808;9.476;2023-12-20T12:36:28;5.60;99.90
20045;DHT22;10183;47.808;9.476;2023-12-20T12:39:15;5.60;99.90
20045;DHT22;10183;47.808;9.476;2023-12-20T12:42:04;5.30;99.90
20045;DHT22;10183;47.808;9.476;2023-12-20T12:44:50;5.40;99.90
20045;DHT22;10183;47.808;9.476;2023-12-20T12:47:36;5.30;99.90
20045;DHT22;10183;47.808;9.476;2023-12-20T12:50:23;5.40;99.90
20045;DHT22;10183;47.808;9.476;2023-12-20T12:53:09;5.50;99.90
20045;DHT22;10183;47.808;9.476;2023-12-20T12:55:55;5.40;99.90
20045;DHT22;10183;47.808;9.476;2023-12-20T12:58:42;5.30;99.90
20045;DHT22;10183;47.808;9.476;2023-12-20T13:01:28;5.20;99.90
20045;DHT22;10183;47.808;9.476;2023-12-20T13:04:14;5.30;99.90
20045;DHT22;10183;47.808;9.476;2023-12-20T13:07:00;5.20;99.90
20045;DHT22;10183;47.808;9.476;2023-12-20T13:09:46;5.20;99.90
20045;DHT22;10183;47.808;9.476;2023-12-20T13:12:32;5.00;99.90
20045;DHT22;10183;47.808;9.476;2023-12-20T13:15:18;4.90;99.90
20045;DHT22;10183;47.808;9.476;2023-12-20T13:18:04;4.80;99.90
20045;DHT22;10183;47.808;9.476;2023-12-20T13:20:52;4.80;99.90
20045;DHT22;10183;47.808;9.476;2023-12-20T13:23:37;4.80;99.90
20045;DHT22;10183;47.808;9.476;2023-12-20T13:26:23;4.80;99.90
20045;DHT22;10183;47.808;9.476;2023-12-20T13:29:09;4.80;99.90
20045;DHT22;10183;47.808;9.476;2023-12-20T13:31:55;4.70;99.90
20045;DHT22;10183;47.808;9.476;2023-12-20T13:34:42;4.60;99.90
20045;DHT22;10183;47.808;9.476;2023-12-20T13:37:28;4.40;99.90
20045;DHT22;10183;47.808;9.476;2023-12-20T13:40:14;4.40;99.90
20045;DHT22;10183;47.808;9.476;2023-12-20T13:43:00;4.50;99.90
20045;DHT22;10183;47.808;9.476;2023-12-20T13:45:48;4.40;99.90
20045;DHT22;10183;47.808;9.476;2023-12-20T13:48:34;4.40;99.90
20045;DHT22;10183;47.808;9.476;2023-12-20T13:51:20;4.40;99.90
20045;DHT22;10183;47.808;9.476;2023-12-20T13:54:06;4.40;99.90
20045;DHT22;10183;47.808;9.476;2023-12-20T13:56:52;4.30;99.90
20045;DHT22;10183;47.808;9.476;2023-12-20T13:59:38;4.30;99.90
20045;DHT22;10183;47.808;9.476;2023-12-20T14:02:24;4.30;99.90
20045;DHT22;10183;47.808;9.476;2023-12-20T14:05:12;4.20;99.90
20045;DHT22;10183;47.808;9.476;2023-12-20T14:08:00;4.20;99.90
20045;DHT22;10183;47.808;9.476;2023-12-20T14:10:46;4.20;99.90
20045;DHT22;10183;47.808;9.476;2023-12-20T14:13:32;4.10;99.90
20045;DHT22;10183;47.808;9.476;2023-12-20T14:16:18;4.10;99.90
20045;DHT22;10183;47.808;9.476;2023-12-20T14:19:04;4.20;99.90
20045;DHT22;10183;47.808;9.476;2023-12-20T14:21:53;4.60;99.90
20045;DHT22;10183;47.808;9.476;2023-12-20T14:24:38;4.30;99.90
20045;DHT22;10183;47.808;9.476;2023-12-20T14:27:24;5.30;99.90
20045;DHT22;10183;47.808;9.476;2023-12-20T14:30:13;6.60;99.90
20045;DHT22;10183;47.808;9.476;2023-12-20T14:33:00;8.00;99.90
20045;DHT22;10183;47.808;9.476;2023-12-20T14:35:46;7.90;99.90
20045;DHT22;10183;47.808;9.476;2023-12-20T14:38:32;7.10;99.90
20045;DHT22;10183;47.808;9.476;2023-12-20T14:41:18;7.10;99.90
20045;DHT22;10183;47.808;9.476;2023-12-20T14:44:05;6.80;99.90
20045;DHT22;10183;47.808;9.476;2023-12-20T14:46:51;6.30;99.90
20045;DHT22;10183;47.808;9.476;2023-12-20T14:49:37;6.30;99.90
20045;DHT22;10183;47.808;9.476;2023-12-20T14:52:23;5.20;99.90
20045;DHT22;10183;47.808;9.476;2023-12-20T14:55:09;4.90;99.90
20045;DHT22;10183;47.808;9.476;2023-12-20T14:57:55;4.20;99.90
20045;DHT22;10183;47.808;9.476;2023-12-20T15:00:41;3.90;99.90
20045;DHT22;10183;47.808;9.476;2023-12-20T15:03:28;3.70;99.90
20045;DHT22;10183;47.808;9.476;2023-12-20T15:06:15;3.60;99.90
20045;DHT22;10183;47.808;9.476;2023-12-20T15:09:01;3.50;99.90
20045;DHT22;10183;47.808;9.476;2023-12-20T15:11:54;3.40;99.90
20045;DHT22;10183;47.808;9.476;2023-12-20T15:14:40;3.30;99.90
20045;DHT22;10183;47.808;9.476;2023-12-20T15:17:26;3.20;99.90
20045;DHT22;10183;47.808;9.476;2023-12-20T15:20:12;3.10;99.90
20045;DHT22;10183;47.808;9.476;2023-12-20T15:22:59;3.00;99.90
20045;DHT22;10183;47.808;9.476;2023-12-20T15:25:52;3.00;99.90
20045;DHT22;10183;47.808;9.476;2023-12-20T15:28:38;2.90;99.90
20045;DHT22;10183;47.808;9.476;2023-12-20T15:31:24;2.80;99.90
20045;DHT22;10183;47.808;9.476;2023-12-20T15:34:12;2.80;99.90
20045;DHT22;10183;47.808;9.476;2023-12-20T15:36:59;2.80;99.90
20045;DHT22;10183;47.808;9.476;2023-12-20T15:39:46;2.70;99.90
20045;DHT22;10183;47.808;9.476;2023-12-20T15:42:32;2.70;99.90
20045;DHT22;10183;47.808;9.476;2023-12-20T15:45:21;2.70;99.90
20045;DHT22;10183;47.808;9.476;2023-12-20T15:48:08;2.70;99.90
20045;DHT22;10183;47.808;9.476;2023-12-20T15:50:56;2.70;99.90
20045;DHT22;10183;47.808;9.476;2023-12-20T15:53:42;2.80;99.90
20045;DHT22;10183;47.808;9.476;2023-12-20T15:56:28;2.80;99.90
20045;DHT22;10183;47.808;9.476;2023-12-20T15:59:14;2.80;99.90
20045;DHT22;10183;47.808;9.476;2023-12-20T16:02:01;2.70;99.90
20045;DHT22;10183;47.808;9.476;2023-12-20T16:04:48;2.80;99.90
20045;DHT22;10183;47.808;9.476;2023-12-20T16:07:34;2.80;99.90
20045;DHT22;10183;47.808;9.476;2023-12-20T16:10:20;2.90;99.90
20045;DHT22;10183;47.808;9.476;2023-12-20T16:13:07;3.00;99.90
20045;DHT22;10183;47.808;9.476;2023-12-20T16:15:53;3.00;99.90
20045;DHT22;10183;47.808;9.476;2023-12-20T16:18:40;3.00;99.90
20045;DHT22;10183;47.808;9.476;2023-12-20T16:21:26;3.00;99.90
20045;DHT22;10183;47.808;9.476;2023-12-20T16:24:12;3.00;99.90
20045;DHT22;10183;47.808;9.476;2023-12-20T16:26:59;3.00;99.90
20045;DHT22;10183;47.808;9.476;2023-12-20T16:29:45;2.90;99.90
20045;DHT22;10183;47.808;9.476;2023-12-20T16:32:31;2.80;99.90
20045;DHT22;10183;47.808;9.476;2023-12-20T16:35:17;2.80;99.90
20045;DHT22;10183;47.808;9.476;2023-12-20T16:38:04;2.60;99.90
20045;DHT22;10183;47.808;9.476;2023-12-20T16:40:49;2.70;99.90
20045;DHT22;10183;47.808;9.476;2023-12-20T16:43:35;2.60;99.90
20045;DHT22;10183;47.808;9.476;2023-12-20T16:46:22;2.60;99.90
20045;DHT22;10183;47.808;9.476;2023-12-20T16:49:08;2.40;99.90
20045;DHT22;10183;47.808;9.476;2023-12-20T16:51:54;2.30;99.90
20045;DHT22;10183;47.808;9.476;2023-12-20T16:54:40;2.20;99.90
20045;DHT22;10183;47.808;9.476;2023-12-20T16:57:26;2.30;99.90
20045;DHT22;10183;47.808;9.476;2023-12-20T17:00:13;2.20;99.90
20045;DHT22;10183;47.808;9.476;2023-12-20T17:03:01;2.30;99.90
20045;DHT22;10183;47.808;9.476;2023-12-20T17:05:48;2.40;99.90
20045;DHT22;10183;47.808;9.476;2023-12-20T17:08:35;2.40;99.90
20045;DHT22;10183;47.808;9.476;2023-12-20T17:11:21;2.20;99.90
20045;DHT22;10183;47.808;9.476;2023-12-20T17:14:07;2.10;99.90
20045;DHT22;10183;47.808;9.476;2023-12-20T17:16:56;2.00;99.90
20045;DHT22;10183;47.808;9.476;2023-12-20T17:19:42;1.90;99.90
20045;DHT22;10183;47.808;9.476;2023-12-20T17:22:29;1.90;99.90
20045;DHT22;10183;47.808;9.476;2023-12-20T17:25:15;1.80;99.90
20045;DHT22;10183;47.808;9.476;2023-12-20T17:28:02;1.80;99.90
20045;DHT22;10183;47.808;9.476;2023-12-20T17:30:49;1.80;99.90
20045;DHT22;10183;47.808;9.476;2023-12-20T17:33:35;1.80;99.90
20045;DHT22;10183;47.808;9.476;2023-12-20T17:36:21;2.00;99.90
20045;DHT22;10183;47.808;9.476;2023-12-20T17:39:07;2.00;99.90
20045;DHT22;10183;47.808;9.476;2023-12-20T17:41:53;1.80;99.90
20045;DHT22;10183;47.808;9.476;2023-12-20T17:44:39;1.70;99.90
20045;DHT22;10183;47.808;9.476;2023-12-20T17:47:25;1.70;99.90
20045;DHT22;10183;47.808;9.476;2023-12-20T17:50:11;1.90;99.90
20045;DHT22;10183;47.808;9.476;2023-12-20T17:52:57;2.00;99.90